sensor_id;sensor_type;location;lat;lon;timestamp;temperature;humidity
74520;DHT22;63002;48.134;-1.948;2024-02-04T06:00:51;17.80;58.20
74520;DHT22;63002;48.134;-1.948;2024-02-04T06:03:17;17.80;58.10
74520;DHT22;63002;48.134;-1.948;2024-02-04T06:05:42;17.80;58.10
74520;DHT22;63002;48.134;-1.948;2024-02-04T06:08:08;17.80;58.10
74520;DHT22;63002;48.134;-1.948;2024-02-04T06:10:34;17.80;58.10
74520;DHT22;63002;48.134;-1.948;2024-02-04T06:12:59;17.80;58.10
74520;DHT22;63002;48.134;-1.948;2024-02-04T06:15:25;17.80;58.10
74520;DHT22;63002;48.134;-1.948;2024-02-04T06:17:51;17.80;58.10
74520;DHT22;63002;48.134;-1.948;2024-02-04T06:20:17;17.80;58.10
74520;DHT22;63002;48.134;-1.948;2024-02-04T06:22:42;17.80;58.10
74520;DHT22;63002;48.134;-1.948;2024-02-04T06:25:08;17.80;58.10
74520;DHT22;63002;48.134;-1.948;2024-02-04T06:27:34;17.80;58.10
74520;DHT22;63002;48.134;-1.948;2024-02-04T06:29:59;17.80;58.10
74520;DHT22;63002;48.134;-1.948;2024-02-04T06:32:25;17.80;58.10
74520;DHT22;63002;48.134;-1.948;2024-02-04T06:34:51;17.80;58.10
74520;DHT22;63002;48.134;-1.948;2024-02-04T06:37:17;17.80;58.10
74520;DHT22;63002;48.134;-1.948;2024-02-04T06:39:43;17.80;58.10
74520;DHT22;63002;48.134;-1.948;2024-02-04T06:42:08;17.80;58.10
74520;DHT22;63002;48.134;-1.948;2024-02-04T06:44:34;17.80;58.10
74520;DHT22;63002;48.134;-1.948;2024-02-04T06:47:00;17.80;58.10
74520;DHT22;63002;48.134;-1.948;2024-02-04T06:49:26;17.80;58.10
74520;DHT22;63002;48.134;-1.948;2024-02-04T06:51:52;17.80;58.00
74520;DHT22;63002;48.134;-1.948;2024-02-04T06:54:22;17.70;58.10
74520;DHT22;63002;48.134;-1.948;2024-02-04T06:56:48;17.80;58.10
74520;DHT22;63002;48.134;-1.948;2024-02-04T06:59:14;17.80;58.00
74520;DHT22;63002;48.134;-1.948;2024-02-04T07:01:39;17.80;58.00
74520;DHT22;63002;48.134;-1.948;2024-02-04T07:04:05;17.80;58.00
74520;DHT22;63002;48.134;-1.948;2024-02-04T07:06:31;17.80;58.00
74520;DHT22;63002;48.134;-1.948;2024-02-04T07:08:56;17.70;57.90
74520;DHT22;63002;48.134;-1.948;2024-02-04T07:11:22;17.80;58.00
74520;DHT22;63002;48.134;-1.948;2024-02-04T07:13:48;17.80;58.00
74520;DHT22;63002;48.134;-1.948;2024-02-04T07:16:13;17.80;58.00
74520;DHT22;63002;48.134;-1.948;2024-02-04T07:18:39;17.80;58.00
74520;DHT22;63002;48.134;-1.948;2024-02-04T07:21:05;17.80;58.00
74520;DHT22;63002;48.134;-1.948;2024-02-04T07:23:30;17.70;58.00
74520;DHT22;63002;48.134;-1.948;2024-02-04T07:25:56;17.70;58.00
74520;DHT22;63002;48.134;-1.948;2024-02-04T07:28:22;17.70;58.00
74520;DHT22;63002;48.134;-1.948;2024-02-04T07:30:47;17.80;58.00
74520;DHT22;63002;48.134;-1.948;2024-02-04T07:33:13;17.70;57.90
74520;DHT22;63002;48.134;-1.948;2024-02-04T07:35:39;17.70;57.90
74520;DHT22;63002;48.134;-1.948;2024-02-04T07:38:04;17.70;57.90
74520;DHT22;63002;48.134;-1.948;2024-02-04T07:40:30;17.70;57.90
74520;DHT22;63002;48.134;-1.948;2024-02-04T07:42:56;17.70;57.90
74520;DHT22;63002;48.134;-1.948;2024-02-04T07:45:22;17.70;58.00
74520;DHT22;63002;48.134;-1.948;2024-02-04T07:47:48;17.70;58.00
74520;DHT22;63002;48.134;-1.948;2024-02-04T07:50:14;17.70;57.90
74520;DHT22;63002;48.134;-1.948;2024-02-04T07:52:39;17.70;57.90
74520;DHT22;63002;48.134;-1.948;2024-02-04T07:55:05;17.70;57.90
74520;DHT22;63002;48.134;-1.948;2024-02-04T07:57:31;17.70;57.90
74520;DHT22;63002;48.134;-1.948;2024-02-04T07:59:57;17.70;57.90
74520;DHT22;63002;48.134;-1.948;2024-02-04T08:02:22;17.70;57.90
74520;DHT22;63002;48.134;-1.948;2024-02-04T08:04:48;17.70;57.90
74520;DHT22;63002;48.134;-1.948;2024-02-04T08:07:14;17.70;57.90
74520;DHT22;63002;48.134;-1.948;2024-02-04T08:09:40;17.70;57.90
74520;DHT22;63002;48.134;-1.948;2024-02-04T08:12:05;17.70;57.90
74520;DHT22;63002;48.134;-1.948;2024-02-04T08:14:31;17.70;57.90
74520;DHT22;63002;48.134;-1.948;2024-02-04T08:16:57;17.70;57.90
74520;DHT22;63002;48.134;-1.948;2024-02-04T08:19:22;17.70;57.90
74520;DHT22;63002;48.134;-1.948;2024-02-04T08:21:48;17.70;57.90
74520;DHT22;63002;48.134;-1.948;2024-02-04T08:24:14;17.70;57.90
74520;DHT22;63002;48.134;-1.948;2024-02-04T08:26:40;17.70;57.90
74520;DHT22;63002;48.134;-1.948;2024-02-04T08:29:05;17.70;57.90
74520;DHT22;63002;48.134;-1.948;2024-02-04T08:31:32;17.70;57.80
74520;DHT22;63002;48.134;-1.948;2024-02-04T08:33:59;17.70;57.90
74520;DHT22;63002;48.134;-1.948;2024-02-04T08:36:25;17.70;57.90
74520;DHT22;63002;48.134;-1.948;2024-02-04T08:38:50;17.70;57.90
74520;DHT22;63002;48.134;-1.948;2024-02-04T08:41:16;17.70;57.80
74520;DHT22;63002;48.134;-1.948;2024-02-04T08:43:42;17.70;57.90
74520;DHT22;63002;48.134;-1.948;2024-02-04T08:46:07;17.70;57.80
74520;DHT22;63002;48.134;-1.948;2024-02-04T08:48:33;17.70;57.80
74520;DHT22;63002;48.134;-1.948;2024-02-04T08:50:59;17.70;57.80
74520;DHT22;63002;48.134;-1.948;2024-02-04T08:53:25;17.70;57.80
74520;DHT22;63002;48.134;-1.948;2024-02-04T08:55:51;17.70;57.80
74520;DHT22;63002;48.134;-1.948;2024-02-04T08:58:16;17.70;57.80
74520;DHT22;63002;48.134;-1.948;2024-02-04T09:00:42;17.70;57.80
74520;DHT22;63002;48.134;-1.948;2024-02-04T09:03:08;17.70;57.80
74520;DHT22;63002;48.134;-1.948;2024-02-04T09:05:33;17.70;57.80
74520;DHT22;63002;48.134;-1.948;2024-02-04T09:07:59;17.70;57.80
74520;DHT22;63002;48.134;-1.948;2024-02-04T09:10:25;17.70;57.80
74520;DHT22;63002;48.134;-1.948;2024-02-04T09:12:50;17.70;57.80
74520;DHT22;63002;48.134;-1.948;2024-02-04T09:15:16;17.70;57.70
74520;DHT22;63002;48.134;-1.948;2024-02-04T09:17:42;17.70;57.80
74520;DHT22;63002;48.134;-1.948;2024-02-04T09:20:08;17.70;57.70
74520;DHT22;63002;48.134;-1.948;2024-02-04T09:22:34;17.70;57.70
74520;DHT22;63002;48.134;-1.948;2024-02-04T09:24:59;17.70;57.70
74520;DHT22;63002;48.134;-1.948;2024-02-04T09:27:25;17.70;57.70
74520;DHT22;63002;48.134;-1.948;2024-02-04T09:29:51;17.70;57.70
74520;DHT22;63002;48.134;-1.948;2024-02-04T09:32:17;17.70;57.80
74520;DHT22;63002;48.134;-1.948;2024-02-04T09:34:43;17.70;57.70
74520;DHT22;63002;48.134;-1.948;2024-02-04T09:37:09;17.70;57.70
74520;DHT22;63002;48.134;-1.948;2024-02-04T09:39:35;17.70;57.70
74520;DHT22;63002;48.134;-1.948;2024-02-04T09:42:01;17.70;57.70
74520;DHT22;63002;48.134;-1.948;2024-02-04T09:44:27;17.70;57.70
74520;DHT22;63002;48.134;-1.948;2024-02-04T09:46:53;17.70;57.70
74520;DHT22;63002;48.134;-1.948;2024-02-04T09:49:19;17.70;57.70
74520;DHT22;63002;48.134;-1.948;2024-02-04T09:51:46;17.70;57.70
74520;DHT22;63002;48.134;-1.948;2024-02-04T09:54:15;17.70;57.70
74520;DHT22;63002;48.134;-1.948;2024-02-04T09:56:42;17.70;57.70
74520;DHT22;63002;48.134;-1.948;2024-02-04T09:59:07;17.70;57.60
74520;DHT22;63002;48.134;-1.948;2024-02-04T10:01:33;17.70;57.70
74520;DHT22;63002;48.134;-1.948;2024-02-04T10:04:02;17.70;57.70
74520;DHT22;63002;48.134;-1.948;2024-02-04T10:06:27;17.70;57.70
74520;DHT22;63002;48.134;-1.948;2024-02-04T10:08:53;17.70;57.70
74520;DHT22;63002;48.134;-1.948;2024-02-04T10:11:19;17.70;57.60
74520;DHT22;63002;48.134;-1.948;2024-02-04T10:13:49;17.70;57.60
74520;DHT22;63002;48.134;-1.948;2024-02-04T10:16:16;17.70;57.60
74520;DHT22;63002;48.134;-1.948;2024-02-04T10:18:45;17.60;57.70
74520;DHT22;63002;48.134;-1.948;2024-02-04T10:21:29;17.70;57.70
74520;DHT22;63002;48.134;-1.948;2024-02-04T10:23:56;17.60;57.60
74520;DHT22;63002;48.134;-1.948;2024-02-04T10:26:22;17.60;57.60
74520;DHT22;63002;48.134;-1.948;2024-02-04T10:28:48;17.70;57.60
74520;DHT22;63002;48.134;-1.948;2024-02-04T10:31:15;17.60;57.60
74520;DHT22;63002;48.134;-1.948;2024-02-04T10:33:40;17.60;57.60
74520;DHT22;63002;48.134;-1.948;2024-02-04T10:36:06;17.70;57.60
74520;DHT22;63002;48.134;-1.948;2024-02-04T10:38:33;17.70;57.60
74520;DHT22;63002;48.134;-1.948;2024-02-04T10:41:02;17.60;57.60
74520;DHT22;63002;48.134;-1.948;2024-02-04T10:43:34;17.70;57.60
74520;DHT22;63002;48.134;-1.948;2024-02-04T10:46:20;17.70;57.60
74520;DHT22;63002;48.134;-1.948;2024-02-04T10:48:52;17.60;57.60
74520;DHT22;63002;48.134;-1.948;2024-02-04T10:51:24;17.60;57.60
74520;DHT22;63002;48.134;-1.948;2024-02-04T10:53:51;17.60;57.60
74520;DHT22;63002;48.134;-1.948;2024-02-04T10:58:51;17.60;57.60
74520;DHT22;63002;48.134;-1.948;2024-02-04T11:01:18;17.60;57.50
74520;DHT22;63002;48.134;-1.948;2024-02-04T11:03:45;17.60;57.50
74520;DHT22;63002;48.134;-1.948;2024-02-04T11:06:12;17.60;57.50
74520;DHT22;63002;48.134;-1.948;2024-02-04T11:08:39;17.60;57.60
74520;DHT22;63002;48.134;-1.948;2024-02-04T11:11:04;17.70;57.50
74520;DHT22;63002;48.134;-1.948;2024-02-04T11:13:31;17.60;57.60
74520;DHT22;63002;48.134;-1.948;2024-02-04T11:16:04;17.70;57.50
74520;DHT22;63002;48.134;-1.948;2024-02-04T11:18:47;17.60;57.50
74520;DHT22;63002;48.134;-1.948;2024-02-04T11:24:41;17.60;57.50
74520;DHT22;63002;48.134;-1.948;2024-02-04T11:27:12;17.60;57.50
74520;DHT22;63002;48.134;-1.948;2024-02-04T11:29:39;17.60;57.50
74520;DHT22;63002;48.134;-1.948;2024-02-04T11:32:05;17.60;57.50
74520;DHT22;63002;48.134;-1.948;2024-02-04T11:34:33;17.70;57.50
74520;DHT22;63002;48.134;-1.948;2024-02-04T11:36:59;17.60;57.50
74520;DHT22;63002;48.134;-1.948;2024-02-04T11:39:25;17.60;57.50
74520;DHT22;63002;48.134;-1.948;2024-02-04T11:41:51;17.60;57.50
74520;DHT22;63002;48.134;-1.948;2024-02-04T11:44:24;17.60;57.50
74520;DHT22;63002;48.134;-1.948;2024-02-04T11:46:51;17.60;57.50
74520;DHT22;63002;48.134;-1.948;2024-02-04T11:49:17;17.60;57.50
74520;DHT22;63002;48.134;-1.948;2024-02-04T11:51:46;17.60;57.50
74520;DHT22;63002;48.134;-1.948;2024-02-04T11:54:14;17.60;57.40
74520;DHT22;63002;48.134;-1.948;2024-02-04T11:56:41;17.60;57.40
74520;DHT22;63002;48.134;-1.948;2024-02-04T11:59:07;17.60;57.40
74520;DHT22;63002;48.134;-1.948;2024-02-04T12:01:33;17.60;57.40
74520;DHT22;63002;48.134;-1.948;2024-02-04T12:04:09;17.60;57.40
74520;DHT22;63002;48.134;-1.948;2024-02-04T12:06:37;17.60;57.40
74520;DHT22;63002;48.134;-1.948;2024-02-04T12:09:03;17.60;57.40
74520;DHT22;63002;48.134;-1.948;2024-02-04T12:11:29;17.60;57.40
74520;DHT22;63002;48.134;-1.948;2024-02-04T12:13:56;17.60;57.40
74520;DHT22;63002;48.134;-1.948;2024-02-04T12:16:22;17.60;57.40
74520;DHT22;63002;48.134;-1.948;2024-02-04T12:18:49;17.60;57.40
74520;DHT22;63002;48.134;-1.948;2024-02-04T12:21:14;17.60;57.40
74520;DHT22;63002;48.134;-1.948;2024-02-04T12:23:40;17.60;57.40
74520;DHT22;63002;48.134;-1.948;2024-02-04T12:26:06;17.60;57.40
74520;DHT22;63002;48.134;-1.948;2024-02-04T12:28:32;17.60;57.40
74520;DHT22;63002;48.134;-1.948;2024-02-04T12:30:57;17.60;57.40
74520;DHT22;63002;48.134;-1.948;2024-02-04T12:33:25;17.60;57.40
74520;DHT22;63002;48.134;-1.948;2024-02-04T12:35:51;17.60;57.40
74520;DHT22;63002;48.134;-1.948;2024-02-04T12:38:17;17.60;57.40
74520;DHT22;63002;48.134;-1.948;2024-02-04T12:40:43;17.60;57.40
74520;DHT22;63002;48.134;-1.948;2024-02-04T12:43:11;17.60;57.30
74520;DHT22;63002;48.134;-1.948;2024-02-04T12:45:36;17.60;57.30
74520;DHT22;63002;48.134;-1.948;2024-02-04T12:48:03;17.60;57.30
74520;DHT22;63002;48.134;-1.948;2024-02-04T12:50:29;17.60;57.40
74520;DHT22;63002;48.134;-1.948;2024-02-04T12:53:21;17.60;57.30
74520;DHT22;63002;48.134;-1.948;2024-02-04T12:55:47;17.60;57.30
74520;DHT22;63002;48.134;-1.948;2024-02-04T12:58:14;17.60;57.30
74520;DHT22;63002;48.134;-1.948;2024-02-04T13:00:42;17.60;57.30
74520;DHT22;63002;48.134;-1.948;2024-02-04T13:03:09;17.60;57.30
74520;DHT22;63002;48.134;-1.948;2024-02-04T13:05:35;17.60;57.30
74520;DHT22;63002;48.134;-1.948;2024-02-04T13:08:03;17.60;57.30
74520;DHT22;63002;48.134;-1.948;2024-02-04T13:10:35;17.60;57.30
74520;DHT22;63002;48.134;-1.948;2024-02-04T13:15:31;17.60;57.30
74520;DHT22;63002;48.134;-1.948;2024-02-04T13:17:58;17.60;57.30
74520;DHT22;63002;48.134;-1.948;2024-02-04T13:20:24;17.60;57.30
74520;DHT22;63002;48.134;-1.948;2024-02-04T13:22:50;17.60;57.30
74520;DHT22;63002;48.134;-1.948;2024-02-04T13:25:16;17.60;57.30
74520;DHT22;63002;48.134;-1.948;2024-02-04T13:27:42;17.60;57.20
74520;DHT22;63002;48.134;-1.948;2024-02-04T13:30:08;17.60;57.30
74520;DHT22;63002;48.134;-1.948;2024-02-04T13:32:39;17.60;57.20
74520;DHT22;63002;48.134;-1.948;2024-02-04T13:35:06;17.60;57.20
74520;DHT22;63002;48.134;-1.948;2024-02-04T13:37:37;17.60;57.30
74520;DHT22;63002;48.134;-1.948;2024-02-04T13:40:04;17.60;57.20
74520;DHT22;63002;48.134;-1.948;2024-02-04T13:42:31;17.60;57.30
74520;DHT22;63002;48.134;-1.948;2024-02-04T13:44:58;17.60;57.20
74520;DHT22;63002;48.134;-1.948;2024-02-04T13:47:24;17.60;57.20
74520;DHT22;63002;48.134;-1.948;2024-02-04T13:49:50;17.60;57.20
74520;DHT22;63002;48.134;-1.948;2024-02-04T13:52:16;17.60;57.20
74520;DHT22;63002;48.134;-1.948;2024-02-04T13:54:41;17.60;57.20
74520;DHT22;63002;48.134;-1.948;2024-02-04T13:57:07;17.60;57.20
74520;DHT22;63002;48.134;-1.948;2024-02-04T13:59:33;17.60;57.20
74520;DHT22;63002;48.134;-1.948;2024-02-04T14:01:58;17.60;57.20
74520;DHT22;63002;48.134;-1.948;2024-02-04T14:04:27;17.60;57.20
74520;DHT22;63002;48.134;-1.948;2024-02-04T14:06:53;17.60;57.20
74520;DHT22;63002;48.134;-1.948;2024-02-04T14:09:18;17.60;57.20
74520;DHT22;63002;48.134;-1.948;2024-02-04T14:11:44;17.60;57.20
74520;DHT22;63002;48.134;-1.948;2024-02-04T14:14:10;17.60;57.20
74520;DHT22;63002;48.134;-1.948;2024-02-04T14:16:35;17.60;57.20
74520;DHT22;63002;48.134;-1.948;2024-02-04T14:19:01;17.60;57.10
74520;DHT22;63002;48.134;-1.948;2024-02-04T14:21:27;17.60;57.20
74520;DHT22;63002;48.134;-1.948;2024-02-04T14:23:52;17.60;57.20
74520;DHT22;63002;48.134;-1.948;2024-02-04T14:26:18;17.60;57.20
74520;DHT22;63002;48.134;-1.948;2024-02-04T14:28:44;17.60;57.20
74520;DHT22;63002;48.134;-1.948;2024-02-04T14:31:10;17.60;57.10
74520;DHT22;63002;48.134;-1.948;2024-02-04T14:33:36;17.60;57.10
74520;DHT22;63002;48.134;-1.948;2024-02-04T14:36:01;17.60;57.10
74520;DHT22;63002;48.134;-1.948;2024-02-04T14:38:27;17.60;57.10
74520;DHT22;63002;48.134;-1.948;2024-02-04T14:40:53;17.60;57.10
74520;DHT22;63002;48.134;-1.948;2024-02-04T14:43:19;17.60;57.10
74520;DHT22;63002;48.134;-1.948;2024-02-04T14:45:47;17.60;57.20
74520;DHT22;63002;48.134;-1.948;2024-02-04T14:48:13;17.60;57.10
74520;DHT22;63002;48.134;-1.948;2024-02-04T14:50:38;17.60;57.10
74520;DHT22;63002;48.134;-1.948;2024-02-04T14:53:05;17.60;57.20
74520;DHT22;63002;48.134;-1.948;2024-02-04T14:55:32;17.60;57.20
74520;DHT22;63002;48.134;-1.948;2024-02-04T14:57:58;17.60;57.10
74520;DHT22;63002;48.134;-1.948;2024-02-04T15:00:24;17.60;57.10
74520;DHT22;63002;48.134;-1.948;2024-02-04T15:02:51;17.60;57.10
74520;DHT22;63002;48.134;-1.948;2024-02-04T15:05:17;17.60;57.10
74520;DHT22;63002;48.134;-1.948;2024-02-04T15:07:43;17.60;57.10
74520;DHT22;63002;48.134;-1.948;2024-02-04T15:10:09;17.60;57.10
74520;DHT22;63002;48.134;-1.948;2024-02-04T15:12:38;17.60;57.10
74520;DHT22;63002;48.134;-1.948;2024-02-04T15:15:05;17.60;57.10
74520;DHT22;63002;48.134;-1.948;2024-02-04T15:17:32;17.60;57.10
74520;DHT22;63002;48.134;-1.948;2024-02-04T15:19:59;17.60;57.10
74520;DHT22;63002;48.134;-1.948;2024-02-04T15:22:24;17.60;57.10
74520;DHT22;63002;48.134;-1.948;2024-02-04T15:24:51;17.60;57.00
74520;DHT22;63002;48.134;-1.948;2024-02-04T15:27:18;17.60;57.10
74520;DHT22;63002;48.134;-1.948;2024-02-04T15:29:44;17.60;57.10
74520;DHT22;63002;48.134;-1.948;2024-02-04T15:32:12;17.60;57.10
74520;DHT22;63002;48.134;-1.948;2024-02-04T15:34:38;17.60;57.10
74520;DHT22;63002;48.134;-1.948;2024-02-04T15:37:05;17.60;57.00
74520;DHT22;63002;48.134;-1.948;2024-02-04T15:39:31;17.60;57.00
74520;DHT22;63002;48.134;-1.948;2024-02-04T15:41:58;17.50;57.00
74520;DHT22;63002;48.134;-1.948;2024-02-04T15:44:24;17.50;57.10
74520;DHT22;63002;48.134;-1.948;2024-02-04T15:46:51;17.60;57.10
74520;DHT22;63002;48.134;-1.948;2024-02-04T15:49:19;17.50;57.00
74520;DHT22;63002;48.134;-1.948;2024-02-04T15:51:46;17.60;57.00
74520;DHT22;63002;48.134;-1.948;2024-02-04T15:54:12;17.50;57.00
74520;DHT22;63002;48.134;-1.948;2024-02-04T15:56:42;17.60;57.00
74520;DHT22;63002;48.134;-1.948;2024-02-04T15:59:12;17.60;57.00
74520;DHT22;63002;48.134;-1.948;2024-02-04T16:01:39;17.60;57.00
74520;DHT22;63002;48.134;-1.948;2024-02-04T16:04:08;17.60;57.00
74520;DHT22;63002;48.134;-1.948;2024-02-04T16:06:34;17.50;57.00
74520;DHT22;63002;48.134;-1.948;2024-02-04T16:09:01;17.50;57.00
74520;DHT22;63002;48.134;-1.948;2024-02-04T16:11:34;17.50;57.00
74520;DHT22;63002;48.134;-1.948;2024-02-04T16:14:06;17.60;57.00
74520;DHT22;63002;48.134;-1.948;2024-02-04T16:16:35;17.50;57.00
74520;DHT22;63002;48.134;-1.948;2024-02-04T16:19:03;17.50;57.00
74520;DHT22;63002;48.134;-1.948;2024-02-04T16:21:30;17.50;57.00
74520;DHT22;63002;48.134;-1.948;2024-02-04T16:23:56;17.50;57.00
74520;DHT22;63002;48.134;-1.948;2024-02-04T16:26:21;17.50;57.00
74520;DHT22;63002;48.134;-1.948;2024-02-04T16:28:48;17.50;57.00
74520;DHT22;63002;48.134;-1.948;2024-02-04T16:31:13;17.60;57.00
74520;DHT22;63002;48.134;-1.948;2024-02-04T16:33:39;17.60;56.90
74520;DHT22;63002;48.134;-1.948;2024-02-04T16:36:05;17.50;57.00
74520;DHT22;63002;48.134;-1.948;2024-02-04T16:38:32;17.60;57.00
74520;DHT22;63002;48.134;-1.948;2024-02-04T16:40:59;17.50;56.90
74520;DHT22;63002;48.134;-1.948;2024-02-04T16:43:25;17.50;56.90
74520;DHT22;63002;48.134;-1.948;2024-02-04T16:45:50;17.50;56.90
74520;DHT22;63002;48.134;-1.948;2024-02-04T16:48:16;17.50;57.00
74520;DHT22;63002;48.134;-1.948;2024-02-04T16:50:42;17.50;57.00
74520;DHT22;63002;48.134;-1.948;2024-02-04T16:53:07;17.50;57.00
74520;DHT22;63002;48.134;-1.948;2024-02-04T16:55:33;17.50;56.90
74520;DHT22;63002;48.134;-1.948;2024-02-04T16:57:59;17.40;54.80
74520;DHT22;63002;48.134;-1.948;2024-02-04T17:00:25;17.10;55.40
74520;DHT22;63002;48.134;-1.948;2024-02-04T17:02:52;17.00;55.40
74520;DHT22;63002;48.134;-1.948;2024-02-04T17:05:18;17.10;55.60
74520;DHT22;63002;48.134;-1.948;2024-02-04T17:07:45;17.20;55.70
74520;DHT22;63002;48.134;-1.948;2024-02-04T17:10:11;17.30;55.50
74520;DHT22;63002;48.134;-1.948;2024-02-04T17:12:37;16.90;55.80
74520;DHT22;63002;48.134;-1.948;2024-02-04T17:15:05;16.90;56.30
74520;DHT22;63002;48.134;-1.948;2024-02-04T17:17:33;17.00;56.00
74520;DHT22;63002;48.134;-1.948;2024-02-04T17:22:34;17.20;56.00
74520;DHT22;63002;48.134;-1.948;2024-02-04T17:25:03;17.30;56.10
74520;DHT22;63002;48.134;-1.948;2024-02-04T17:27:33;17.30;56.20
74520;DHT22;63002;48.134;-1.948;2024-02-04T17:30:00;17.30;56.20
74520;DHT22;63002;48.134;-1.948;2024-02-04T17:32:26;17.40;56.10
74520;DHT22;63002;48.134;-1.948;2024-02-04T17:34:55;17.40;55.80
74520;DHT22;63002;48.134;-1.948;2024-02-04T17:37:21;17.50;55.70
74520;DHT22;63002;48.134;-1.948;2024-02-04T17:39:47;17.50;55.80
74520;DHT22;63002;48.134;-1.948;2024-02-04T17:42:13;17.50;56.00
74520;DHT22;63002;48.134;-1.948;2024-02-04T17:44:39;17.50;56.00
74520;DHT22;63002;48.134;-1.948;2024-02-04T17:47:05;17.60;56.00
74520;DHT22;63002;48.134;-1.948;2024-02-04T17:49:32;17.60;56.00
74520;DHT22;63002;48.134;-1.948;2024-02-04T17:51:58;17.60;56.00
74520;DHT22;63002;48.134;-1.948;2024-02-04T17:54:23;17.70;56.00
74520;DHT22;63002;48.134;-1.948;2024-02-04T17:56:51;17.70;56.10
74520;DHT22;63002;48.134;-1.948;2024-02-04T17:59:17;17.60;55.80
74520;DHT22;63002;48.134;-1.948;2024-02-04T18:01:44;17.70;56.10
74520;DHT22;63002;48.134;-1.948;2024-02-04T18:04:10;17.70;55.90
74520;DHT22;63002;48.134;-1.948;2024-02-04T18:06:39;17.70;56.10
74520;DHT22;63002;48.134;-1.948;2024-02-04T18:09:05;17.70;56.10
74520;DHT22;63002;48.134;-1.948;2024-02-04T18:11:35;17.70;56.20
74520;DHT22;63002;48.134;-1.948;2024-02-04T18:14:01;17.50;55.30
74520;DHT22;63002;48.134;-1.948;2024-02-04T18:16:30;17.50;56.10
74520;DHT22;63002;48.134;-1.948;2024-02-04T18:18:56;17.50;56.30
74520;DHT22;63002;48.134;-1.948;2024-02-04T18:21:24;17.60;56.40
74520;DHT22;63002;48.134;-1.948;2024-02-04T18:23:50;17.60;56.50
74520;DHT22;63002;48.134;-1.948;2024-02-04T18:26:21;17.70;56.50
74520;DHT22;63002;48.134;-1.948;2024-02-04T18:28:47;17.60;55.10
74520;DHT22;63002;48.134;-1.948;2024-02-04T18:31:13;17.10;56.60
74520;DHT22;63002;48.134;-1.948;2024-02-04T18:33:39;17.30;57.70
74520;DHT22;63002;48.134;-1.948;2024-02-04T18:36:05;17.50;57.70
74520;DHT22;63002;48.134;-1.948;2024-02-04T18:38:31;17.60;57.70
74520;DHT22;63002;48.134;-1.948;2024-02-04T18:40:58;17.70;57.70
74520;DHT22;63002;48.134;-1.948;2024-02-04T18:43:24;17.80;57.70
74520;DHT22;63002;48.134;-1.948;2024-02-04T18:45:49;17.90;57.60
74520;DHT22;63002;48.134;-1.948;2024-02-04T18:48:15;17.90;57.60
74520;DHT22;63002;48.134;-1.948;2024-02-04T18:50:41;18.00;57.70
74520;DHT22;63002;48.134;-1.948;2024-02-04T18:53:07;18.00;57.70
74520;DHT22;63002;48.134;-1.948;2024-02-04T18:55:33;18.00;57.70
74520;DHT22;63002;48.134;-1.948;2024-02-04T18:57:59;18.10;57.70
74520;DHT22;63002;48.134;-1.948;2024-02-04T19:00:25;18.10;58.00
74520;DHT22;63002;48.134;-1.948;2024-02-04T19:02:51;18.20;58.10
74520;DHT22;63002;48.134;-1.948;2024-02-04T19:05:16;18.20;58.20
74520;DHT22;63002;48.134;-1.948;2024-02-04T19:07:42;18.20;58.30
74520;DHT22;63002;48.134;-1.948;2024-02-04T19:10:08;18.30;58.20
74520;DHT22;63002;48.134;-1.948;2024-02-04T19:12:34;18.20;58.00
74520;DHT22;63002;48.134;-1.948;2024-02-04T19:15:00;18.10;57.90
74520;DHT22;63002;48.134;-1.948;2024-02-04T19:17:28;18.10;58.00
74520;DHT22;63002;48.134;-1.948;2024-02-04T19:19:56;18.10;58.00
74520;DHT22;63002;48.134;-1.948;2024-02-04T19:22:22;18.10;58.00
74520;DHT22;63002;48.134;-1.948;2024-02-04T19:24:52;18.10;58.00
74520;DHT22;63002;48.134;-1.948;2024-02-04T19:27:19;18.10;57.70
74520;DHT22;63002;48.134;-1.948;2024-02-04T19:29:46;18.10;58.10
74520;DHT22;63002;48.134;-1.948;2024-02-04T19:32:12;18.10;58.20
74520;DHT22;63002;48.134;-1.948;2024-02-04T19:34:37;18.00;58.00
74520;DHT22;63002;48.134;-1.948;2024-02-04T19:37:03;17.90;58.60
74520;DHT22;63002;48.134;-1.948;2024-02-04T19:39:30;18.00;58.50
74520;DHT22;63002;48.134;-1.948;2024-02-04T19:41:57;18.00;58.40
74520;DHT22;63002;48.134;-1.948;2024-02-04T19:44:24;17.90;57.70
74520;DHT22;63002;48.134;-1.948;2024-02-04T19:46:49;17.70;58.70
74520;DHT22;63002;48.134;-1.948;2024-02-04T19:49:15;17.80;58.80
74520;DHT22;63002;48.134;-1.948;2024-02-04T19:51:42;17.90;58.80
74520;DHT22;63002;48.134;-1.948;2024-02-04T19:54:08;17.90;58.60
74520;DHT22;63002;48.134;-1.948;2024-02-04T19:56:36;17.90;58.60
74520;DHT22;63002;48.134;-1.948;2024-02-04T19:59:02;17.90;58.60
74520;DHT22;63002;48.134;-1.948;2024-02-04T20:01:32;18.00;58.50
74520;DHT22;63002;48.134;-1.948;2024-02-04T20:03:57;18.00;58.60
74520;DHT22;63002;48.134;-1.948;2024-02-04T20:06:23;18.00;58.50
74520;DHT22;63002;48.134;-1.948;2024-02-04T20:08:49;18.00;58.60
74520;DHT22;63002;48.134;-1.948;2024-02-04T20:11:15;18.00;58.60
74520;DHT22;63002;48.134;-1.948;2024-02-04T20:13:40;18.00;58.60
74520;DHT22;63002;48.134;-1.948;2024-02-04T20:16:11;18.00;58.60
74520;DHT22;63002;48.134;-1.948;2024-02-04T20:18:37;18.20;58.60
74520;DHT22;63002;48.134;-1.948;2024-02-04T20:21:03;18.40;59.50
74520;DHT22;63002;48.134;-1.948;2024-02-04T20:23:30;18.50;59.70
74520;DHT22;63002;48.134;-1.948;2024-02-04T20:25:55;18.60;59.90
74520;DHT22;63002;48.134;-1.948;2024-02-04T20:28:24;18.60;60.30
74520;DHT22;63002;48.134;-1.948;2024-02-04T20:30:50;18.60;60.30
74520;DHT22;63002;48.134;-1.948;2024-02-04T20:33:16;18.60;60.30
74520;DHT22;63002;48.134;-1.948;2024-02-04T20:35:43;18.60;60.30
74520;DHT22;63002;48.134;-1.948;2024-02-04T20:38:09;18.70;60.40
74520;DHT22;63002;48.134;-1.948;2024-02-04T20:40:35;18.70;60.30
74520;DHT22;63002;48.134;-1.948;2024-02-04T20:43:01;18.70;60.40
74520;DHT22;63002;48.134;-1.948;2024-02-04T20:45:31;18.70;60.30
74520;DHT22;63002;48.134;-1.948;2024-02-04T20:47:56;18.80;60.50
74520;DHT22;63002;48.134;-1.948;2024-02-04T20:50:24;18.80;60.50
74520;DHT22;63002;48.134;-1.948;2024-02-04T20:52:49;18.80;60.40
74520;DHT22;63002;48.134;-1.948;2024-02-04T20:55:16;18.80;60.50
74520;DHT22;63002;48.134;-1.948;2024-02-04T20:57:45;18.90;60.50
74520;DHT22;63002;48.134;-1.948;2024-02-04T21:00:11;18.80;57.70
74520;DHT22;63002;48.134;-1.948;2024-02-04T21:02:37;18.50;59.10
74520;DHT22;63002;48.134;-1.948;2024-02-04T21:05:05;18.50;59.60
74520;DHT22;63002;48.134;-1.948;2024-02-04T21:07:31;18.60;59.80
74520;DHT22;63002;48.134;-1.948;2024-02-04T21:09:56;18.60;59.90
74520;DHT22;63002;48.134;-1.948;2024-02-04T21:12:22;18.60;60.00
74520;DHT22;63002;48.134;-1.948;2024-02-04T21:14:48;18.60;59.90
74520;DHT22;63002;48.134;-1.948;2024-02-04T21:17:13;18.60;59.90
74520;DHT22;63002;48.134;-1.948;2024-02-04T21:19:39;18.60;59.90
74520;DHT22;63002;48.134;-1.948;2024-02-04T21:22:05;18.50;59.80